createdAt,value
2022-11-17T00:01:06.386Z,94028.44
2022-11-17T00:03:33.991Z,94017.41
2022-11-17T00:06:04.022Z,94002.69
2022-11-17T00:08:31.302Z,93997.16
2022-11-17T00:11:01.475Z,93989.78
2022-11-17T00:13:29.327Z,93988.22
2022-11-17T00:15:56.483Z,93997.41
2022-11-17T00:18:23.745Z,93994.75
2022-11-17T00:20:51.000Z,93976.31
2022-11-17T00:23:18.206Z,93975.56
2022-11-17T00:25:45.543Z,93968.69
2022-11-17T00:28:14.223Z,93956.34
2022-11-17T00:30:43.806Z,93948.94
2022-11-17T00:33:11.324Z,93941.31
2022-11-17T00:35:38.664Z,93934.47
2022-11-17T00:38:05.829Z,93930.50
2022-11-17T00:40:33.204Z,93939.75
2022-11-17T00:43:00.328Z,93920.53
2022-11-17T00:45:28.907Z,93933.16
2022-11-17T00:47:56.004Z,93916.31
2022-11-17T00:50:23.127Z,93915.78
2022-11-17T00:52:50.383Z,93922.09
2022-11-17T00:55:17.564Z,93922.38
2022-11-17T00:57:44.702Z,93918.94
2022-11-17T01:00:12.804Z,93921.56
2022-11-17T01:02:41.488Z,93930.50
2022-11-17T01:05:09.325Z,93922.88
2022-11-17T01:07:36.562Z,93910.25
2022-11-17T01:10:04.284Z,93918.94
2022-11-17T01:12:31.523Z,93902.06
2022-11-17T01:14:58.724Z,93917.91
2022-11-17T01:17:26.003Z,93957.63
2022-11-17T01:19:54.830Z,93973.44
2022-11-17T01:22:22.070Z,93984.75
2022-11-17T01:24:49.203Z,93973.44
2022-11-17T01:27:16.406Z,93969.16
2022-11-17T01:29:43.483Z,93958.66
2022-11-17T01:32:10.643Z,93943.91
2022-11-17T01:34:37.757Z,93948.13
2022-11-17T01:37:06.403Z,93966.03
2022-11-17T01:39:33.583Z,93964.16
2022-11-17T01:42:05.048Z,93959.97
2022-11-17T01:45:04.804Z,93972.31
2022-11-17T01:47:47.305Z,93966.03
2022-11-17T01:50:26.924Z,93984.00
2022-11-17T01:52:58.803Z,93979.66
2022-11-17T01:55:35.788Z,93975.72
2022-11-17T01:58:08.985Z,93983.63
2022-11-17T02:00:36.383Z,93984.13
2022-11-17T02:03:05.165Z,93977.28
2022-11-17T02:05:43.465Z,93976.25
2022-11-17T02:08:13.427Z,93971.47
2022-11-17T02:10:43.792Z,93968.06
2022-11-17T02:13:14.862Z,93972.00
2022-11-17T02:15:42.001Z,93952.53
2022-11-17T02:18:09.795Z,93940.44
2022-11-17T02:20:51.642Z,93936.47
2022-11-17T02:23:52.786Z,93944.13
2022-11-17T02:26:54.644Z,93951.50
2022-11-17T02:29:33.783Z,93941.72
2022-11-17T02:32:07.921Z,93938.34
2022-11-17T02:34:46.224Z,93939.13
2022-11-17T02:37:26.500Z,93924.69
2022-11-17T02:40:03.842Z,93920.47
2022-11-17T02:42:39.282Z,93902.31
2022-11-17T02:45:16.374Z,93912.56
2022-11-17T02:47:50.861Z,93923.09
2022-11-17T02:50:27.910Z,93916.78
2022-11-17T02:52:55.921Z,93910.22
2022-11-17T02:55:23.063Z,93907.84
2022-11-17T02:57:50.161Z,93913.38
2022-11-17T03:00:20.681Z,93917.84
2022-11-17T03:03:09.081Z,93933.94
2022-11-17T03:05:49.761Z,93930.50
2022-11-17T03:08:32.761Z,93947.09
2022-11-17T03:11:03.792Z,93930.75
2022-11-17T03:13:46.460Z,93930.47
2022-11-17T03:16:29.737Z,93932.31
2022-11-17T03:19:10.480Z,93931.81
2022-11-17T03:21:45.022Z,93936.97
2022-11-17T03:24:21.401Z,93936.97
2022-11-17T03:26:53.820Z,93937.81
2022-11-17T03:29:26.462Z,93932.34
2022-11-17T03:32:00.821Z,93924.94
2022-11-17T03:34:36.041Z,93934.16
2022-11-17T03:37:09.012Z,93935.50
2022-11-17T03:39:39.181Z,93947.91
2022-11-17T03:42:14.380Z,93948.41
2022-11-17T03:44:47.621Z,93949.75
2022-11-17T03:47:21.474Z,93947.94
2022-11-17T03:49:57.100Z,93940.88
2022-11-17T03:52:25.359Z,93936.38
2022-11-17T03:54:53.620Z,93942.44
2022-11-17T03:57:30.301Z,93941.06
2022-11-17T04:00:05.320Z,93944.47
2022-11-17T04:02:34.241Z,93926.78
2022-11-17T04:05:01.459Z,93936.75
2022-11-17T04:07:28.637Z,93931.94
2022-11-17T04:09:55.921Z,93933.47
2022-11-17T04:12:23.123Z,93944.03
2022-11-17T04:14:50.220Z,93935.81
2022-11-17T04:17:17.560Z,93944.78
2022-11-17T04:19:46.141Z,93936.56
2022-11-17T04:22:13.220Z,93943.19
2022-11-17T04:24:40.384Z,93943.97
2022-11-17T04:27:08.301Z,93948.75
2022-11-17T04:29:35.354Z,93956.91
2022-11-17T04:32:02.619Z,93949.22
2022-11-17T04:34:29.744Z,93949.97
2022-11-17T04:36:58.222Z,93959.03
2022-11-17T04:39:25.342Z,93949.78
2022-11-17T04:41:52.447Z,93959.53
2022-11-17T04:44:21.359Z,93948.16
2022-11-17T04:46:49.101Z,93956.84
2022-11-17T04:49:18.281Z,93949.44
2022-11-17T04:51:46.239Z,93935.47
2022-11-17T04:54:18.081Z,93940.25
2022-11-17T04:56:46.001Z,93948.97
2022-11-17T04:59:13.236Z,93924.06
2022-11-17T05:01:41.011Z,93924.91
2022-11-17T05:04:10.300Z,93934.69
2022-11-17T05:06:39.861Z,93915.91
2022-11-17T05:09:09.841Z,93925.44
2022-11-17T05:11:38.962Z,93914.13
2022-11-17T05:14:06.402Z,93919.19
2022-11-17T05:16:33.580Z,93911.50
2022-11-17T05:19:00.780Z,93894.59
2022-11-17T05:21:28.001Z,93913.09
2022-11-17T05:23:55.206Z,93905.44
2022-11-17T05:26:24.421Z,93899.13
2022-11-17T05:28:54.962Z,93912.56
2022-11-17T05:31:23.401Z,93918.66
2022-11-17T05:33:50.982Z,93907.59
2022-11-17T05:36:18.922Z,93932.94
2022-11-17T05:38:47.821Z,93919.97
2022-11-17T05:41:16.161Z,93919.75
2022-11-17T05:43:43.841Z,93916.00
2022-11-17T05:46:12.641Z,93933.13
2022-11-17T05:48:40.382Z,93924.50
2022-11-17T05:51:07.862Z,93932.66
2022-11-17T05:53:35.316Z,93918.44
2022-11-17T05:56:15.821Z,93934.28
2022-11-17T05:58:47.904Z,93917.56
2022-11-17T06:01:20.803Z,93924.69
2022-11-17T06:03:54.079Z,93938.69
2022-11-17T06:06:22.073Z,93942.97
2022-11-17T06:08:50.602Z,93960.91
2022-11-17T06:11:17.761Z,93943.22
2022-11-17T06:13:45.002Z,93954.91
2022-11-17T06:16:20.001Z,93957.75
2022-11-17T06:18:52.722Z,93948.78
2022-11-17T06:21:20.002Z,93950.91
2022-11-17T06:23:50.061Z,93969.13
2022-11-17T06:26:17.624Z,93979.94
2022-11-17T06:28:49.264Z,93976.25
2022-11-17T06:31:19.205Z,93981.25
2022-11-17T06:33:47.614Z,93981.00
2022-11-17T06:36:15.004Z,93986.81
2022-11-17T06:38:42.125Z,93997.09
2022-11-17T06:41:12.075Z,94000.78
2022-11-17T06:43:39.464Z,94011.63
2022-11-17T06:46:06.622Z,94008.47
2022-11-17T06:48:35.517Z,94012.16
2022-11-17T06:51:04.730Z,94016.34
2022-11-17T06:53:33.365Z,94020.53
2022-11-17T06:56:00.948Z,94030.84
2022-11-17T06:58:28.643Z,94028.41
2022-11-17T07:01:02.512Z,94026.78
2022-11-17T07:03:29.683Z,94019.38
2022-11-17T07:06:01.026Z,94021.31
2022-11-17T07:08:28.884Z,94027.91
2022-11-17T07:11:01.065Z,94033.16
2022-11-17T07:13:28.325Z,94035.78
2022-11-17T07:15:55.445Z,94037.09
2022-11-17T07:18:22.726Z,94047.16
2022-11-17T07:20:49.824Z,94049.03
2022-11-17T07:23:18.564Z,94052.50
2022-11-17T07:25:45.744Z,94057.50
2022-11-17T07:28:12.883Z,94053.28
2022-11-17T07:30:40.063Z,94056.19
2022-11-17T07:33:07.283Z,94054.56
2022-11-17T07:35:36.045Z,94055.66
2022-11-17T07:38:03.305Z,94055.94
2022-11-17T07:40:32.004Z,94052.78
2022-11-17T07:42:59.184Z,94057.03
2022-11-17T07:45:31.402Z,94045.63
2022-11-17T07:48:01.085Z,94039.03
2022-11-17T07:50:29.988Z,94048.00
2022-11-17T07:52:58.103Z,94050.91
2022-11-17T07:55:26.884Z,94045.63
2022-11-17T07:58:00.404Z,94040.59
2022-11-17T08:00:30.535Z,94046.13
2022-11-17T08:03:01.405Z,94044.28
2022-11-17T08:05:28.587Z,94046.91
2022-11-17T08:07:57.026Z,94047.97
2022-11-17T08:10:24.670Z,94052.97
2022-11-17T08:12:52.084Z,94053.78
2022-11-17T08:15:20.810Z,94058.25
2022-11-17T08:17:52.897Z,94055.88
2022-11-17T08:20:20.163Z,94056.94
2022-11-17T08:22:47.486Z,94051.13
2022-11-17T08:25:14.787Z,94054.53
2022-11-17T08:27:42.107Z,94050.56
2022-11-17T08:30:10.248Z,94055.34
2022-11-17T08:32:38.935Z,94051.88
2022-11-17T08:35:07.010Z,94050.56
2022-11-17T08:37:34.230Z,94059.06
2022-11-17T08:40:01.485Z,94052.66
2022-11-17T08:42:28.688Z,94038.69
2022-11-17T08:44:55.924Z,94032.03
2022-11-17T08:47:23.125Z,94040.47
2022-11-17T08:49:51.858Z,94043.38
2022-11-17T08:52:19.286Z,94046.25
2022-11-17T08:54:46.445Z,94050.75
2022-11-17T08:57:13.679Z,94049.94
2022-11-17T08:59:40.965Z,94050.53
2022-11-17T09:02:08.205Z,94058.44
2022-11-17T09:04:35.401Z,94051.84
2022-11-17T09:07:04.198Z,94056.03
2022-11-17T09:09:32.217Z,94061.03
2022-11-17T09:12:00.345Z,94046.44
2022-11-17T09:14:27.526Z,94043.50
2022-11-17T09:16:54.704Z,94058.91
2022-11-17T09:19:21.885Z,94061.34
2022-11-17T09:21:49.128Z,94066.34
2022-11-17T09:24:18.005Z,94066.13
2022-11-17T09:26:45.246Z,94067.22
2022-11-17T09:29:12.424Z,94071.72
2022-11-17T09:31:39.740Z,94079.41
2022-11-17T09:34:06.998Z,94074.81
2022-11-17T09:36:35.402Z,94085.09
2022-11-17T09:39:02.744Z,94087.28
2022-11-17T09:41:40.164Z,94089.25
2022-11-17T09:44:23.224Z,94078.94
2022-11-17T09:47:01.744Z,94079.69
2022-11-17T09:49:40.105Z,94087.50
2022-11-17T09:52:18.366Z,94077.81
2022-11-17T09:54:53.584Z,94076.84
2022-11-17T09:57:31.469Z,94071.72
2022-11-17T10:00:12.886Z,94051.09
2022-11-17T10:02:40.885Z,94050.28
2022-11-17T10:05:14.044Z,94053.44
2022-11-17T10:07:49.255Z,94066.69
2022-11-17T10:10:23.216Z,94051.09
2022-11-17T10:12:58.330Z,94053.22
2022-11-17T10:15:30.966Z,94044.47
2022-11-17T10:17:58.182Z,94035.25
2022-11-17T10:20:25.763Z,94031.75
2022-11-17T10:22:56.143Z,94032.09
2022-11-17T10:25:38.636Z,94029.78
2022-11-17T10:28:22.823Z,94027.16
2022-11-17T10:30:54.563Z,94028.75
2022-11-17T10:33:35.624Z,94023.75
2022-11-17T10:36:06.228Z,94022.56
2022-11-17T10:38:33.803Z,94010.88
2022-11-17T10:41:03.445Z,94007.22
2022-11-17T10:43:36.920Z,94013.25
2022-11-17T10:46:07.593Z,94002.47
2022-11-17T10:48:37.528Z,94013.69
2022-11-17T10:51:07.322Z,94004.66
2022-11-17T10:53:44.448Z,93988.69
2022-11-17T10:56:16.004Z,93984.28
2022-11-17T10:59:11.882Z,94006.97
2022-11-17T11:01:42.060Z,94001.38
2022-11-17T11:04:28.263Z,93982.53
2022-11-17T11:07:09.131Z,94001.31
2022-11-17T11:09:48.676Z,93993.66
2022-11-17T11:12:24.573Z,93998.81
2022-11-17T11:14:59.063Z,94000.13
2022-11-17T11:17:29.791Z,94005.97
2022-11-17T11:19:57.263Z,94019.41
2022-11-17T11:22:35.064Z,94011.50
2022-11-17T11:25:18.010Z,94007.28
2022-11-17T11:28:00.882Z,93992.19
2022-11-17T11:30:37.647Z,93989.38
2022-11-17T11:33:23.203Z,93983.78
2022-11-17T11:36:08.403Z,93975.56
2022-11-17T11:38:50.202Z,93972.06
2022-11-17T11:41:35.828Z,93955.00
2022-11-17T11:44:36.922Z,93947.03
2022-11-17T11:47:23.684Z,93939.34
2022-11-17T11:49:57.603Z,93946.63
2022-11-17T11:52:31.906Z,93931.00
2022-11-17T11:55:04.147Z,93941.75
2022-11-17T11:57:37.784Z,93931.16
2022-11-17T12:00:08.002Z,93934.03
2022-11-17T12:02:47.783Z,93936.94
2022-11-17T12:05:26.584Z,93949.38
2022-11-17T12:08:10.582Z,93954.53
2022-11-17T12:10:48.243Z,93943.28
2022-11-17T12:13:19.562Z,93939.94
2022-11-17T12:15:47.287Z,93935.34
2022-11-17T12:18:31.984Z,93936.13
2022-11-17T12:21:05.542Z,93934.31
2022-11-17T12:23:57.466Z,93944.19
2022-11-17T12:26:30.290Z,93951.88
2022-11-17T12:29:29.949Z,93966.19
2022-11-17T12:31:58.644Z,93968.03
2022-11-17T12:34:30.203Z,93997.13
2022-11-17T12:37:21.203Z,93997.13
2022-11-17T12:40:07.083Z,93990.06
2022-11-17T12:42:36.065Z,93973.63
2022-11-17T12:45:08.845Z,93972.91
2022-11-17T12:47:38.896Z,93949.66
2022-11-17T12:50:40.508Z,93943.34
2022-11-17T12:53:27.055Z,93953.34
2022-11-17T12:56:26.712Z,93964.31
2022-11-17T12:59:11.826Z,93989.72
2022-11-17T13:01:51.400Z,93993.38
2022-11-17T13:04:24.242Z,93979.16
2022-11-17T13:07:04.501Z,93967.19
2022-11-17T13:09:34.327Z,93968.72
2022-11-17T13:12:04.564Z,93966.75
2022-11-17T13:14:32.462Z,93966.22
2022-11-17T13:17:01.403Z,93966.91
2022-11-17T13:19:34.007Z,93962.38
2022-11-17T13:22:05.868Z,93958.06
2022-11-17T13:24:35.211Z,93957.72
2022-11-17T13:27:04.486Z,93967.22
2022-11-17T13:29:31.686Z,93954.72
2022-11-17T13:32:25.125Z,93950.44
2022-11-17T13:34:55.204Z,93954.38
2022-11-17T13:37:26.102Z,93956.59
2022-11-17T13:40:01.432Z,93960.06
2022-11-17T13:42:32.290Z,93949.25
2022-11-17T13:45:02.926Z,93950.59
2022-11-17T13:47:45.687Z,93942.78
2022-11-17T13:50:33.343Z,93942.13
2022-11-17T13:53:19.421Z,93934.28
2022-11-17T13:55:47.366Z,93935.56
2022-11-17T13:58:27.629Z,93933.06
2022-11-17T14:00:57.694Z,93934.41
2022-11-17T14:03:34.262Z,93921.75
2022-11-17T14:06:01.729Z,93918.38
2022-11-17T14:08:33.184Z,93907.59
2022-11-17T14:11:21.613Z,93901.91
2022-11-17T14:13:51.542Z,93906.28
2022-11-17T14:16:24.647Z,93898.72
2022-11-17T14:19:01.461Z,93885.16
2022-11-17T14:21:30.005Z,93884.38
2022-11-17T14:24:10.403Z,93876.94
2022-11-17T14:26:43.608Z,93866.53
2022-11-17T14:29:12.382Z,93851.19
2022-11-17T14:31:39.622Z,93863.53
2022-11-17T14:34:06.804Z,93858.09
2022-11-17T14:36:35.465Z,93861.97
2022-11-17T14:39:12.186Z,93852.31
2022-11-17T14:41:39.706Z,93847.63
2022-11-17T14:44:06.944Z,93850.09
2022-11-17T14:46:35.144Z,93837.59
2022-11-17T14:49:02.301Z,93839.56
2022-11-17T14:51:29.503Z,93844.38
2022-11-17T14:53:56.643Z,93825.66
2022-11-17T14:56:26.082Z,93821.47
2022-11-17T14:58:56.184Z,93820.25
2022-11-17T15:01:26.644Z,93817.22
2022-11-17T15:03:54.213Z,93810.72
2022-11-17T15:06:22.601Z,93795.63
2022-11-17T15:08:54.562Z,93789.84
2022-11-17T15:11:21.949Z,93792.66
2022-11-17T15:13:50.562Z,93788.09
2022-11-17T15:16:18.221Z,93789.84
2022-11-17T15:18:46.907Z,93778.78
2022-11-17T15:21:16.182Z,93763.88
2022-11-17T15:23:45.528Z,93762.78
2022-11-17T15:26:16.165Z,93755.63
2022-11-17T15:28:43.401Z,93763.09
2022-11-17T15:31:14.648Z,93755.28
2022-11-17T15:33:44.402Z,93746.34
2022-11-17T15:36:13.707Z,93752.00
2022-11-17T15:38:41.843Z,93747.59
2022-11-17T15:41:12.062Z,93752.75
2022-11-17T15:43:40.912Z,93745.91
2022-11-17T15:46:10.422Z,93742.53
2022-11-17T15:48:40.802Z,93743.16
2022-11-17T15:51:10.442Z,93730.00
2022-11-17T15:53:39.302Z,93728.84
2022-11-17T15:56:09.645Z,93731.34
2022-11-17T15:58:37.202Z,93729.50
2022-11-17T16:01:09.399Z,93721.66
2022-11-17T16:03:38.602Z,93736.28
2022-11-17T16:06:06.904Z,93731.91
2022-11-17T16:08:34.264Z,93728.00
2022-11-17T16:11:02.407Z,93729.09
2022-11-17T16:13:29.725Z,93724.34
2022-11-17T16:15:57.644Z,93723.47
2022-11-17T16:18:25.683Z,93731.34
2022-11-17T16:20:56.977Z,93732.16
2022-11-17T16:23:28.776Z,93733.91
2022-11-17T16:25:59.062Z,93723.44
2022-11-17T16:28:26.623Z,93724.56
2022-11-17T16:30:54.439Z,93727.44
2022-11-17T16:33:21.805Z,93727.69
2022-11-17T16:35:49.594Z,93731.97
2022-11-17T16:38:21.004Z,93733.38
2022-11-17T16:40:50.002Z,93713.44
2022-11-17T16:43:19.023Z,93719.00
2022-11-17T16:45:46.842Z,93726.47
2022-11-17T16:48:16.484Z,93734.50
2022-11-17T16:50:43.662Z,93734.88
2022-11-17T16:53:11.303Z,93746.75
2022-11-17T16:55:40.622Z,93754.53
2022-11-17T16:58:10.742Z,93751.19
2022-11-17T17:00:40.043Z,93758.75
2022-11-17T17:03:07.428Z,93743.09
2022-11-17T17:05:37.936Z,93754.69
2022-11-17T17:08:05.622Z,93758.31
2022-11-17T17:10:35.043Z,93756.97
2022-11-17T17:13:06.802Z,93762.91
2022-11-17T17:15:34.001Z,93770.34
2022-11-17T17:18:01.112Z,93762.63
2022-11-17T17:20:28.203Z,93775.50
2022-11-17T17:22:59.021Z,93769.25
2022-11-17T17:25:30.021Z,93787.59
2022-11-17T17:27:57.082Z,93787.44
2022-11-17T17:30:25.584Z,93788.19
2022-11-17T17:32:53.083Z,93803.88
2022-11-17T17:35:20.324Z,93812.13
2022-11-17T17:37:47.762Z,93808.06
2022-11-17T17:40:15.044Z,93802.78
2022-11-17T17:42:42.202Z,93825.41
2022-11-17T17:45:09.884Z,93811.03
2022-11-17T17:47:38.878Z,93818.13
2022-11-17T17:50:07.842Z,93810.22
2022-11-17T17:52:34.964Z,93828.78
2022-11-17T17:55:03.030Z,93818.72
2022-11-17T17:57:33.933Z,93806.69
2022-11-17T18:00:01.265Z,93807.09
2022-11-17T18:02:28.506Z,93814.72
2022-11-17T18:04:57.104Z,93830.25
2022-11-17T18:07:24.187Z,93830.19
2022-11-17T18:09:51.676Z,93839.19
2022-11-17T18:12:18.812Z,93848.06
2022-11-17T18:14:47.771Z,93877.25
2022-11-17T18:17:14.956Z,93887.06
2022-11-17T18:19:42.372Z,93896.31
2022-11-17T18:22:10.939Z,93902.66
2022-11-17T18:24:38.030Z,93911.19
2022-11-17T18:27:06.753Z,93909.09
2022-11-17T18:29:34.539Z,93915.34
2022-11-17T18:32:01.672Z,93943.59
2022-11-17T18:34:28.971Z,93956.06
2022-11-17T18:36:56.272Z,93946.28
2022-11-17T18:39:25.037Z,93955.59
2022-11-17T18:41:52.197Z,93945.88
2022-11-17T18:44:19.755Z,93963.88
2022-11-17T18:46:47.073Z,93968.56
2022-11-17T18:49:14.662Z,93978.66
2022-11-17T18:51:42.260Z,93981.38
2022-11-17T18:54:11.843Z,93984.38
2022-11-17T18:56:40.711Z,93976.72
2022-11-17T18:59:08.734Z,93977.81
2022-11-17T19:01:35.984Z,93985.41
2022-11-17T19:04:03.970Z,93988.47
2022-11-17T19:06:31.931Z,93973.72
2022-11-17T19:08:59.814Z,93965.19
2022-11-17T19:11:28.912Z,93963.03
2022-11-17T19:13:59.491Z,93965.00
2022-11-17T19:16:27.113Z,93978.31
2022-11-17T19:18:56.388Z,93980.13
2022-11-17T19:21:25.990Z,93987.38
2022-11-17T19:23:55.191Z,93983.56
2022-11-17T19:26:24.408Z,93982.97
2022-11-17T19:28:56.310Z,93971.78
2022-11-17T19:31:26.490Z,93976.78
2022-11-17T19:33:54.608Z,93978.56
2022-11-17T19:36:23.670Z,93974.91
2022-11-17T19:38:52.868Z,93965.13
2022-11-17T19:41:22.028Z,93983.03
2022-11-17T19:43:52.751Z,93969.22
2022-11-17T19:46:20.656Z,93968.53
2022-11-17T19:48:49.632Z,93967.28
2022-11-17T19:51:19.569Z,93969.69
2022-11-17T19:53:47.288Z,93968.13
2022-11-17T19:56:14.871Z,93965.47
2022-11-17T19:58:42.376Z,93960.03
2022-11-17T20:01:12.248Z,93962.94
2022-11-17T20:03:41.148Z,93966.72
2022-11-17T20:06:12.253Z,93965.91
2022-11-17T20:08:40.302Z,93964.31
2022-11-17T20:11:09.709Z,93966.78
2022-11-17T20:13:37.788Z,93969.00
2022-11-17T20:16:12.029Z,93964.84
2022-11-17T20:18:39.971Z,93966.97
2022-11-17T20:21:07.608Z,93966.19
2022-11-17T20:23:38.209Z,93955.38
2022-11-17T20:26:06.649Z,93960.38
2022-11-17T20:28:34.405Z,93962.47
2022-11-17T20:31:06.488Z,93954.16
2022-11-17T20:33:33.628Z,93956.09
2022-11-17T20:36:00.931Z,93953.81
2022-11-17T20:38:28.110Z,93954.84
2022-11-17T20:40:59.692Z,93957.50
2022-11-17T20:43:27.950Z,93966.44
2022-11-17T20:45:56.989Z,93966.03
2022-11-17T20:48:25.149Z,93961.47
2022-11-17T20:50:56.089Z,93959.72
2022-11-17T20:53:24.008Z,93958.09
2022-11-17T20:55:51.131Z,93960.72
2022-11-17T20:58:19.677Z,93944.31
2022-11-17T21:00:46.790Z,93949.66
2022-11-17T21:03:14.449Z,93949.31
2022-11-17T21:05:41.568Z,93949.94
2022-11-17T21:08:08.719Z,93957.44
2022-11-17T21:10:37.238Z,93943.25
2022-11-17T21:13:04.930Z,93946.16
2022-11-17T21:15:33.442Z,93937.97
2022-11-17T21:18:00.459Z,93923.25
2022-11-17T21:20:27.940Z,93936.44
2022-11-17T21:22:55.265Z,93922.97
2022-11-17T21:25:22.419Z,93928.25
2022-11-17T21:27:49.601Z,93910.06
2022-11-17T21:30:16.933Z,93926.41
2022-11-17T21:32:45.471Z,93946.94
2022-11-17T21:35:12.619Z,93945.09
2022-11-17T21:37:39.717Z,93935.88
2022-11-17T21:40:08.477Z,93944.00
2022-11-17T21:42:35.623Z,93944.25
2022-11-17T21:45:02.756Z,93947.16
2022-11-17T21:47:30.997Z,93944.78
2022-11-17T21:49:59.616Z,93951.13
2022-11-17T21:52:26.716Z,93950.06
2022-11-17T21:54:53.758Z,93930.03
2022-11-17T21:57:20.918Z,93927.41
2022-11-17T21:59:48.018Z,93926.09
2022-11-17T22:02:15.158Z,93931.63
2022-11-17T22:04:42.387Z,93936.13
2022-11-17T22:07:10.946Z,93949.56
2022-11-17T22:09:38.037Z,93953.78
2022-11-17T22:12:05.323Z,93965.09
2022-11-17T22:14:32.456Z,93966.16
2022-11-17T22:16:59.656Z,93949.06
2022-11-17T22:19:28.216Z,93953.78
2022-11-17T22:21:55.901Z,93951.66
2022-11-17T22:24:24.356Z,93941.13
2022-11-17T22:26:51.398Z,93933.50
2022-11-17T22:29:20.671Z,93934.31
2022-11-17T22:31:49.200Z,93936.88
2022-11-17T22:34:17.138Z,93933.44
2022-11-17T22:36:44.200Z,93930.56
2022-11-17T22:39:11.613Z,93927.91
2022-11-17T22:41:40.538Z,93938.97
2022-11-17T22:44:07.658Z,93945.31
2022-11-17T22:46:35.022Z,93955.84
2022-11-17T22:49:02.617Z,93958.81
2022-11-17T22:51:29.796Z,93954.00
2022-11-17T22:53:56.816Z,93947.41
2022-11-17T22:56:23.998Z,93961.38
2022-11-17T22:58:56.869Z,93970.00
2022-11-17T23:01:27.125Z,93976.63
2022-11-17T23:03:54.310Z,93977.44
2022-11-17T23:06:21.457Z,93989.56
2022-11-17T23:08:48.697Z,93985.06
2022-11-17T23:11:36.137Z,94000.06
2022-11-17T23:14:05.345Z,93996.38
2022-11-17T23:16:32.456Z,93983.72
2022-11-17T23:18:59.578Z,94007.38
2022-11-17T23:21:26.859Z,94005.28
2022-11-17T23:23:54.037Z,94020.84
2022-11-17T23:26:21.801Z,94024.78
2022-11-17T23:28:49.856Z,94025.06
2022-11-17T23:31:18.577Z,94034.28
2022-11-17T23:33:48.006Z,94040.91
2022-11-17T23:36:17.399Z,94042.16
2022-11-17T23:38:45.279Z,94057.72
2022-11-17T23:41:14.621Z,94071.63
2022-11-17T23:43:42.598Z,94056.88
2022-11-17T23:46:12.361Z,94055.72
2022-11-17T23:48:41.036Z,94054.72
2022-11-17T23:51:10.039Z,94051.06
2022-11-17T23:53:37.537Z,94051.59
2022-11-17T23:56:06.457Z,94046.06
2022-11-17T23:58:33.917Z,94037.84
